Time;durP1;ratioP1;P1;durP2;ratioP2;P2;SDS_P1;SDS_P2;PMS_P1;PMS_P2;Temp;Humidity;BMP_temperature;BMP_pressure;BME280_temperature;BME280_humidity;BME280_pressure;Samples;Min_cycle;Max_cycle;Signal;HPM_P1;HPM_P2
2020/12/17 00:01:11;;;;;;;7.95;4.35;;;18.30;59.40;;;;;;5063671;28;20179;-60
2020/12/17 00:03:37;;;;;;;6.10;4.28;;;18.40;59.40;;;;;;5063803;28;20747;-61
2020/12/17 00:06:02;;;;;;;7.68;4.10;;;18.30;59.30;;;;;;5063531;28;20541;-59
2020/12/17 00:08:28;;;;;;;5.13;3.90;;;18.30;59.30;;;;;;5066238;28;20377;-62
2020/12/17 00:10:54;;;;;;;6.95;4.18;;;18.30;59.30;;;;;;5067194;28;20278;-60
2020/12/17 00:13:20;;;;;;;5.43;3.80;;;18.30;59.30;;;;;;5049257;28;20186;-60
2020/12/17 00:15:45;;;;;;;6.05;4.20;;;18.30;59.30;;;;;;5067067;28;20177;-62
2020/12/17 00:18:11;;;;;;;6.85;4.10;;;18.30;59.30;;;;;;5067099;28;20179;-60
2020/12/17 00:20:36;;;;;;;6.70;4.05;;;18.20;59.10;;;;;;5067324;28;20182;-62
2020/12/17 00:23:02;;;;;;;5.78;3.55;;;18.20;59.20;;;;;;5066602;28;20313;-60
2020/12/17 00:25:27;;;;;;;6.50;3.92;;;18.20;59.10;;;;;;5067025;28;20190;-62
2020/12/17 00:27:53;;;;;;;4.32;3.67;;;18.20;59.20;;;;;;5066665;28;20537;-61
2020/12/17 00:30:18;;;;;;;6.75;4.30;;;18.20;59.10;;;;;;5066943;28;20186;-60
2020/12/17 00:32:45;;;;;;;4.90;3.35;;;18.20;59.10;;;;;;5067228;28;20174;-58
2020/12/17 00:35:11;;;;;;;5.22;3.63;;;18.20;59.10;;;;;;5066615;28;20754;-60
2020/12/17 00:37:37;;;;;;;6.00;4.00;;;18.10;59.00;;;;;;5066374;28;20273;-61
2020/12/17 00:40:04;;;;;;;6.15;3.97;;;18.10;59.10;;;;;;5066725;28;20547;-62
2020/12/17 00:42:30;;;;;;;4.38;3.72;;;18.10;59.10;;;;;;5066570;28;20186;-61
2020/12/17 00:44:55;;;;;;;4.38;3.53;;;18.10;59.00;;;;;;5066811;28;20174;-61
2020/12/17 00:47:21;;;;;;;7.13;4.00;;;18.10;59.00;;;;;;5066393;28;20182;-61
2020/12/17 00:49:46;;;;;;;4.05;3.65;;;18.10;59.00;;;;;;5066445;28;20257;-60
2020/12/17 00:52:12;;;;;;;5.75;3.55;;;18.10;59.00;;;;;;5066730;28;20210;-61
2020/12/17 00:54:39;;;;;;;4.78;3.60;;;18.10;59.00;;;;;;5066374;28;20202;-62
2020/12/17 00:57:04;;;;;;;6.22;3.50;;;18.10;59.10;;;;;;5066307;28;20178;-61
2020/12/17 00:59:30;;;;;;;5.18;3.70;;;18.10;59.00;;;;;;5066418;28;20202;-60
2020/12/17 01:01:55;;;;;;;5.13;3.30;;;18.10;59.00;;;;;;5066178;28;20187;-61
2020/12/17 01:04:21;;;;;;;5.57;4.03;;;18.00;58.90;;;;;;5066067;28;20184;-60
2020/12/17 01:06:46;;;;;;;4.80;3.45;;;18.00;58.90;;;;;;5066462;28;20261;-61
2020/12/17 01:09:12;;;;;;;4.38;3.33;;;18.00;58.90;;;;;;5066336;28;20214;-61
2020/12/17 01:11:37;;;;;;;7.38;3.72;;;18.00;58.90;;;;;;5066395;28;20536;-59
2020/12/17 01:14:03;;;;;;;5.13;3.47;;;18.00;59.00;;;;;;5066220;28;20514;-59
2020/12/17 01:16:29;;;;;;;3.90;3.40;;;18.00;58.90;;;;;;5066225;28;20190;-61
2020/12/17 01:18:54;;;;;;;5.18;3.75;;;18.00;58.90;;;;;;5065797;28;20590;-62
2020/12/17 01:21:20;;;;;;;4.38;3.28;;;18.00;58.80;;;;;;5066340;28;20532;-61
2020/12/17 01:23:46;;;;;;;4.20;3.00;;;18.00;58.90;;;;;;5066195;28;20258;-61
2020/12/17 01:26:11;;;;;;;5.97;3.72;;;17.90;58.80;;;;;;5048270;28;20273;-59
2020/12/17 01:28:37;;;;;;;5.10;3.72;;;18.00;58.80;;;;;;5065781;28;20692;-60
2020/12/17 01:31:10;;;;;;;3.70;3.38;;;17.90;58.80;;;;;;5065742;28;20186;-60
2020/12/17 01:33:36;;;;;;;3.88;3.20;;;17.90;58.80;;;;;;5066080;28;20205;-60
2020/12/17 01:36:03;;;;;;;4.85;3.58;;;17.90;58.80;;;;;;5065729;28;20647;-61
2020/12/17 01:38:28;;;;;;;4.00;3.42;;;18.00;58.80;;;;;;5065885;28;20177;-61
2020/12/17 01:40:54;;;;;;;3.22;2.88;;;18.00;58.80;;;;;;5065611;28;20222;-61
2020/12/17 01:43:20;;;;;;;5.07;3.22;;;17.90;58.80;;;;;;5065632;28;20175;-60
2020/12/17 01:45:45;;;;;;;3.78;3.17;;;17.90;58.70;;;;;;5065284;28;20181;-61
2020/12/17 01:48:11;;;;;;;3.97;3.58;;;17.90;58.80;;;;;;5065566;28;20167;-60
2020/12/17 01:50:37;;;;;;;4.63;3.22;;;17.90;58.70;;;;;;5031508;28;20186;-61
2020/12/17 01:53:02;;;;;;;4.63;3.10;;;17.90;58.70;;;;;;5047730;28;20162;-61
2020/12/17 01:55:29;;;;;;;2.92;2.63;;;17.90;58.70;;;;;;5065370;28;20167;-61
2020/12/17 01:57:54;;;;;;;5.38;3.28;;;17.90;58.80;;;;;;5031072;28;20171;-61
2020/12/17 02:00:20;;;;;;;3.92;2.88;;;17.80;58.70;;;;;;5047330;28;20210;-61
2020/12/17 02:02:45;;;;;;;3.58;3.28;;;17.90;58.70;;;;;;5031108;28;20186;-60
2020/12/17 02:05:11;;;;;;;3.78;2.97;;;17.90;58.70;;;;;;5065280;28;20178;-60
2020/12/17 02:07:37;;;;;;;4.30;3.20;;;17.80;58.60;;;;;;5065300;28;21003;-60
2020/12/17 02:10:02;;;;;;;3.38;2.70;;;17.80;58.60;;;;;;5047119;28;20170;-58
2020/12/17 02:12:47;;;;;;;3.22;2.90;;;17.80;58.70;;;;;;5065173;28;20307;-59
2020/12/17 02:15:13;;;;;;;3.63;3.22;;;17.80;58.60;;;;;;5064496;28;20182;-60
2020/12/17 02:17:39;;;;;;;3.33;3.03;;;17.80;58.60;;;;;;5064915;28;20170;-61
2020/12/17 02:20:05;;;;;;;3.90;3.50;;;17.80;58.60;;;;;;5064930;28;20206;-60
2020/12/17 02:22:31;;;;;;;3.22;2.92;;;17.80;58.60;;;;;;5047011;28;20178;-60
2020/12/17 02:24:57;;;;;;;3.00;2.72;;;17.80;58.60;;;;;;5046851;28;20580;-61
2020/12/17 02:27:22;;;;;;;2.92;2.60;;;17.80;58.60;;;;;;5064109;28;20266;-59
2020/12/17 02:29:48;;;;;;;3.38;3.08;;;17.80;58.60;;;;;;5064303;28;20175;-59
2020/12/17 02:32:13;;;;;;;4.00;2.85;;;17.80;58.60;;;;;;5064727;28;20183;-58
2020/12/17 02:34:39;;;;;;;2.80;2.53;;;17.70;58.60;;;;;;5064681;28;20624;-59
2020/12/17 02:37:04;;;;;;;3.50;2.55;;;17.70;58.50;;;;;;5064447;28;20594;-59
2020/12/17 02:39:33;;;;;;;4.32;3.53;;;17.70;58.60;;;;;;5064479;28;20228;-60
2020/12/17 02:41:59;;;;;;;3.50;2.78;;;17.70;58.50;;;;;;5064012;28;20553;-58
2020/12/17 02:44:24;;;;;;;3.10;2.80;;;17.70;58.60;;;;;;5064500;28;20178;-59
2020/12/17 02:46:50;;;;;;;3.15;2.85;;;17.70;58.60;;;;;;5064190;28;20186;-59
2020/12/17 02:49:15;;;;;;;3.40;2.97;;;17.70;58.50;;;;;;5064402;28;20175;-61
2020/12/17 02:51:41;;;;;;;3.70;3.20;;;17.70;58.50;;;;;;5064289;28;20194;-61
2020/12/17 02:54:06;;;;;;;2.97;2.60;;;17.70;58.50;;;;;;5064710;28;20209;-61
2020/12/17 02:56:32;;;;;;;3.38;3.03;;;17.70;58.50;;;;;;5064442;28;20232;-60
2020/12/17 02:58:57;;;;;;;3.38;3.08;;;17.70;58.50;;;;;;5064186;28;20251;-60
2020/12/17 03:01:23;;;;;;;5.22;3.20;;;17.70;58.50;;;;;;5064596;28;20185;-57
2020/12/17 03:03:48;;;;;;;3.28;2.70;;;17.70;58.50;;;;;;5064378;28;20536;-59
2020/12/17 03:06:14;;;;;;;2.90;2.55;;;17.70;58.50;;;;;;5046624;28;20265;-60
2020/12/17 03:08:40;;;;;;;3.25;2.95;;;17.70;58.50;;;;;;5064003;28;20182;-60
2020/12/17 03:11:05;;;;;;;3.15;2.63;;;17.60;58.50;;;;;;5063914;28;20190;-60
2020/12/17 03:13:31;;;;;;;3.20;2.50;;;17.60;58.50;;;;;;5064740;28;20473;-60
2020/12/17 03:15:56;;;;;;;3.00;2.60;;;17.70;58.50;;;;;;5064539;28;20207;-61
2020/12/17 03:18:22;;;;;;;2.85;2.60;;;17.70;58.50;;;;;;5064048;28;20179;-60
2020/12/17 03:20:48;;;;;;;3.95;3.03;;;17.60;58.40;;;;;;5063901;28;20279;-59
2020/12/17 03:23:13;;;;;;;2.60;2.38;;;17.60;59.10;;;;;;5045840;28;20178;-60
2020/12/17 03:25:39;;;;;;;4.13;2.58;;;17.60;58.40;;;;;;5063748;28;20190;-59
2020/12/17 03:28:04;;;;;;;3.42;2.55;;;17.60;58.40;;;;;;5063750;28;20178;-55
2020/12/17 03:30:31;;;;;;;3.72;2.58;;;17.60;58.40;;;;;;5063837;28;20982;-60
2020/12/17 03:32:57;;;;;;;3.03;2.60;;;17.60;58.40;;;;;;5063787;28;20178;-58
2020/12/17 03:35:23;;;;;;;3.88;2.28;;;17.60;58.40;;;;;;5063909;28;20170;-59
2020/12/17 03:37:48;;;;;;;3.20;2.78;;;17.60;58.40;;;;;;5063673;28;20965;-61
2020/12/17 03:40:14;;;;;;;4.22;2.70;;;17.50;58.40;;;;;;5063674;28;20198;-59
2020/12/17 03:42:39;;;;;;;2.90;2.60;;;17.50;58.40;;;;;;5065511;28;20926;-61
2020/12/17 03:45:06;;;;;;;3.13;2.60;;;17.50;58.40;;;;;;5067822;28;20179;-61
2020/12/17 03:47:31;;;;;;;3.35;2.50;;;17.60;58.40;;;;;;5067606;28;20944;-57
2020/12/17 03:49:57;;;;;;;2.35;2.13;;;17.50;58.40;;;;;;5067257;28;20240;-59
2020/12/17 03:52:22;;;;;;;2.95;2.40;;;17.60;58.40;;;;;;5067697;28;20185;-59
2020/12/17 03:54:48;;;;;;;2.45;2.25;;;17.60;58.40;;;;;;5067710;28;20171;-60
2020/12/17 03:57:13;;;;;;;3.33;2.78;;;17.50;58.40;;;;;;5067794;28;20636;-56
2020/12/17 03:59:39;;;;;;;2.45;2.25;;;17.50;58.40;;;;;;5067190;28;20237;-61
2020/12/17 04:02:04;;;;;;;3.60;2.67;;;17.50;58.40;;;;;;5067363;28;20186;-58
2020/12/17 04:04:30;;;;;;;3.22;2.53;;;17.60;58.40;;;;;;5067510;28;20177;-60
2020/12/17 04:06:55;;;;;;;3.35;2.70;;;17.50;58.40;;;;;;5067247;28;20708;-60
2020/12/17 04:09:21;;;;;;;2.67;2.47;;;17.50;58.40;;;;;;5067229;28;20601;-60
2020/12/17 04:11:46;;;;;;;2.47;2.28;;;17.50;58.40;;;;;;5067566;28;20655;-61
2020/12/17 04:14:12;;;;;;;2.50;2.30;;;17.50;58.40;;;;;;5067418;28;20526;-58
2020/12/17 04:16:37;;;;;;;2.40;2.20;;;17.50;58.40;;;;;;5067334;28;20166;-59
2020/12/17 04:19:03;;;;;;;2.47;2.28;;;17.50;58.30;;;;;;5067066;28;20194;-62
2020/12/17 04:21:29;;;;;;;2.35;2.10;;;17.50;58.40;;;;;;5067419;28;20235;-59
2020/12/17 04:23:54;;;;;;;3.20;2.60;;;17.50;58.30;;;;;;5067313;28;20616;-60
2020/12/17 04:26:20;;;;;;;2.30;2.10;;;17.50;58.30;;;;;;5067166;28;20273;-58
2020/12/17 04:28:45;;;;;;;2.95;2.33;;;17.50;58.40;;;;;;5066964;28;20175;-61
2020/12/17 04:31:11;;;;;;;2.40;2.15;;;17.50;58.40;;;;;;5049385;28;20288;-60
2020/12/17 04:33:37;;;;;;;2.60;2.38;;;17.40;58.30;;;;;;5066934;28;20175;-59
2020/12/17 04:36:02;;;;;;;3.20;2.58;;;17.50;58.40;;;;;;5067069;28;20182;-58
2020/12/17 04:38:28;;;;;;;2.25;2.05;;;17.40;58.30;;;;;;5066775;28;20176;-61
2020/12/17 04:40:54;;;;;;;2.92;2.33;;;17.50;58.40;;;;;;5066528;28;20694;-61
2020/12/17 04:43:19;;;;;;;3.00;2.20;;;17.40;58.20;;;;;;5066658;28;20184;-61
2020/12/17 04:45:45;;;;;;;2.53;2.33;;;17.40;58.40;;;;;;5066766;28;20178;-62
2020/12/17 04:48:12;;;;;;;2.50;2.22;;;17.50;58.40;;;;;;5049186;28;20244;-61
2020/12/17 04:50:37;;;;;;;2.67;2.17;;;17.40;58.40;;;;;;5048938;28;20183;-60
2020/12/17 04:53:03;;;;;;;2.50;2.30;;;17.40;58.30;;;;;;5048267;28;20174;-61
2020/12/17 04:55:30;;;;;;;2.17;2.05;;;17.40;58.30;;;;;;5066506;28;20202;-61
2020/12/17 04:57:57;;;;;;;2.97;2.15;;;17.40;58.30;;;;;;5066432;28;20499;-60
2020/12/17 05:00:23;;;;;;;1.95;1.80;;;17.50;58.40;;;;;;5066485;28;20220;-61
2020/12/17 05:02:48;;;;;;;3.08;2.40;;;17.40;58.30;;;;;;5066645;28;20198;-61
2020/12/17 05:05:14;;;;;;;2.72;2.53;;;17.40;58.30;;;;;;5066186;28;20179;-61
2020/12/17 05:07:40;;;;;;;2.30;2.10;;;17.40;58.30;;;;;;5066276;28;20188;-60
2020/12/17 05:10:06;;;;;;;2.50;2.30;;;17.30;58.30;;;;;;5048220;28;20549;-61
2020/12/17 05:12:32;;;;;;;2.53;2.33;;;17.40;58.40;;;;;;5066290;28;20640;-60
2020/12/17 05:14:57;;;;;;;2.88;2.20;;;17.40;58.40;;;;;;5066114;28;20871;-58
2020/12/17 05:17:23;;;;;;;2.85;2.20;;;17.40;58.40;;;;;;5065849;28;20175;-60
2020/12/17 05:19:49;;;;;;;2.35;2.22;;;17.30;58.30;;;;;;5065985;28;20213;-61
2020/12/17 05:22:15;;;;;;;2.67;2.25;;;17.30;58.30;;;;;;5065962;28;20167;-61
2020/12/17 05:24:44;;;;;;;2.78;2.20;;;17.30;58.40;;;;;;5048167;28;20214;-62
2020/12/17 05:27:10;;;;;;;2.35;2.15;;;17.30;58.40;;;;;;5065667;28;20375;-60
2020/12/17 05:29:40;;;;;;;2.20;2.00;;;17.30;58.40;;;;;;5065845;28;20640;-60
2020/12/17 05:32:07;;;;;;;2.63;2.00;;;17.30;58.40;;;;;;5065904;28;20189;-56
2020/12/17 05:34:33;;;;;;;2.25;2.13;;;17.30;58.40;;;;;;5066218;28;20178;-61
2020/12/17 05:36:58;;;;;;;2.25;2.08;;;17.30;58.40;;;;;;5065840;28;20174;-61
2020/12/17 05:39:24;;;;;;;1.90;1.52;;;17.30;58.40;;;;;;5047843;28;20195;-61
2020/12/17 05:41:51;;;;;;;2.50;2.05;;;17.30;58.40;;;;;;5047774;28;20189;-60
2020/12/17 05:44:29;;;;;;;2.33;2.13;;;17.30;58.40;;;;;;5065514;28;20175;-61
2020/12/17 05:46:56;;;;;;;2.63;2.00;;;17.30;58.40;;;;;;5065334;28;20215;-60
2020/12/17 05:49:24;;;;;;;2.47;2.28;;;17.30;58.40;;;;;;5047179;28;20308;-61
2020/12/17 05:52:06;;;;;;;2.20;2.00;;;17.20;58.40;;;;;;5065540;28;20208;-61
2020/12/17 05:54:31;;;;;;;2.70;2.50;;;17.20;58.40;;;;;;5033082;28;20879;-61
2020/12/17 05:57:06;;;;;;;2.40;2.08;;;17.20;58.40;;;;;;5047661;28;20181;-60
2020/12/17 05:59:32;;;;;;;2.15;1.95;;;17.30;58.40;;;;;;5065185;28;20202;-61
2020/12/17 06:01:57;;;;;;;2.20;2.00;;;17.30;58.40;;;;;;5065498;28;20586;-61
2020/12/17 06:04:23;;;;;;;1.98;1.80;;;17.30;58.40;;;;;;5030421;28;20682;-58
2020/12/17 06:06:49;;;;;;;2.00;1.90;;;17.30;58.40;;;;;;5064855;28;20178;-61
2020/12/17 06:09:21;;;;;;;2.10;1.90;;;17.20;58.40;;;;;;5065524;28;20670;-60
2020/12/17 06:11:48;;;;;;;2.35;2.15;;;17.20;58.40;;;;;;5065163;28;20212;-60
2020/12/17 06:14:14;;;;;;;1.90;1.80;;;17.20;58.40;;;;;;5065080;28;20178;-61
2020/12/17 06:16:42;;;;;;;2.33;1.90;;;17.20;58.40;;;;;;5065314;28;20262;-62
2020/12/17 06:19:07;;;;;;;1.92;1.80;;;17.20;58.40;;;;;;5064785;28;20288;-62
2020/12/17 06:21:33;;;;;;;1.80;1.70;;;17.20;58.40;;;;;;5030594;28;20719;-61
2020/12/17 06:23:59;;;;;;;2.33;2.17;;;17.20;58.40;;;;;;5047335;28;20531;-61
2020/12/17 06:26:26;;;;;;;2.20;2.00;;;17.20;58.40;;;;;;5064848;28;20244;-60
2020/12/17 06:28:52;;;;;;;2.20;2.00;;;17.20;58.50;;;;;;5064843;28;20174;-60
2020/12/17 06:31:27;;;;;;;1.90;1.80;;;17.20;58.50;;;;;;5064743;28;20649;-60
2020/12/17 06:34:03;;;;;;;2.80;1.77;;;17.20;58.50;;;;;;5064617;28;20202;-58
2020/12/17 06:36:34;;;;;;;2.00;1.90;;;17.30;58.50;;;;;;5047732;28;20174;-60
2020/12/17 06:39:04;;;;;;;2.25;2.00;;;17.30;58.50;;;;;;5030644;28;20210;-60
2020/12/17 06:41:29;;;;;;;2.33;1.95;;;17.30;58.50;;;;;;5064475;28;20274;-62
2020/12/17 06:43:55;;;;;;;1.85;1.75;;;17.30;58.40;;;;;;5064664;28;20246;-61
2020/12/17 06:46:31;;;;;;;2.47;2.25;;;17.30;58.50;;;;;;5064627;28;20175;-61
2020/12/17 06:48:57;;;;;;;2.17;1.90;;;17.30;59.10;;;;;;5064525;28;20261;-61
2020/12/17 06:51:28;;;;;;;2.15;1.90;;;17.30;58.40;;;;;;5064493;28;20672;-62
2020/12/17 06:53:54;;;;;;;1.88;1.77;;;17.30;58.50;;;;;;5064378;28;20179;-62
2020/12/17 06:56:19;;;;;;;2.10;1.90;;;17.30;58.50;;;;;;5029795;28;20178;-57
2020/12/17 06:58:45;;;;;;;1.70;1.60;;;17.20;58.40;;;;;;5064101;28;20253;-60
2020/12/17 07:01:23;;;;;;;1.83;1.70;;;17.20;58.40;;;;;;5064163;28;20210;-62
2020/12/17 07:03:49;;;;;;;1.80;1.70;;;17.20;58.40;;;;;;5064058;28;20173;-57
2020/12/17 07:06:17;;;;;;;1.80;1.70;;;17.30;58.50;;;;;;5064308;28;20178;-61
2020/12/17 07:08:55;;;;;;;2.35;2.15;;;17.20;58.50;;;;;;5064220;28;20277;-61
2020/12/17 07:11:40;;;;;;;1.83;1.73;;;17.20;58.50;;;;;;5064143;28;20170;-60
2020/12/17 07:14:19;;;;;;;2.25;2.08;;;17.20;58.50;;;;;;5064458;28;20217;-61
2020/12/17 07:16:55;;;;;;;1.95;1.70;;;17.20;58.50;;;;;;5045924;28;20182;-61
2020/12/17 07:19:28;;;;;;;2.13;1.92;;;17.20;58.50;;;;;;5063834;28;20388;-60
2020/12/17 07:22:03;;;;;;;2.00;1.65;;;17.20;58.50;;;;;;5064017;28;20272;-60
2020/12/17 07:24:31;;;;;;;1.70;1.60;;;17.20;58.50;;;;;;5064161;28;20170;-62
2020/12/17 07:27:04;;;;;;;1.70;1.60;;;17.20;58.50;;;;;;5046239;28;20676;-61
2020/12/17 07:29:44;;;;;;;2.20;2.00;;;17.20;58.50;;;;;;5063565;28;20195;-58
2020/12/17 07:32:26;;;;;;;2.17;1.65;;;17.20;58.60;;;;;;5064170;28;20174;-60
2020/12/17 07:34:52;;;;;;;1.60;1.50;;;17.20;58.60;;;;;;5063687;28;20190;-61
2020/12/17 07:37:36;;;;;;;1.38;1.30;;;17.20;58.50;;;;;;5063763;28;20265;-60
2020/12/17 07:40:05;;;;;;;1.58;1.48;;;17.20;58.50;;;;;;5064186;28;20284;-61
2020/12/17 07:42:30;;;;;;;1.88;1.77;;;17.30;58.60;;;;;;5063978;28;20167;-61
2020/12/17 07:44:56;;;;;;;2.58;1.67;;;17.30;58.50;;;;;;5064045;28;20185;-62
2020/12/17 07:47:21;;;;;;;2.10;1.90;;;17.20;58.50;;;;;;5064141;28;20253;-61
2020/12/17 07:49:47;;;;;;;1.85;1.75;;;17.30;58.50;;;;;;5063765;28;20780;-61
2020/12/17 07:52:29;;;;;;;2.03;1.90;;;17.20;58.40;;;;;;5063778;28;20186;-62
2020/12/17 07:54:55;;;;;;;2.13;1.92;;;17.30;58.50;;;;;;5063747;28;20173;-61
2020/12/17 07:57:20;;;;;;;2.30;1.95;;;17.20;58.50;;;;;;5063540;28;20539;-61
2020/12/17 07:59:46;;;;;;;2.42;1.83;;;17.20;58.50;;;;;;5063442;28;20199;-60
2020/12/17 08:02:11;;;;;;;1.70;1.60;;;17.20;58.50;;;;;;5063510;28;20178;-60
2020/12/17 08:04:37;;;;;;;1.85;1.70;;;17.20;58.50;;;;;;5063825;28;20182;-62
2020/12/17 08:07:08;;;;;;;1.90;1.80;;;17.20;58.40;;;;;;5063693;28;20175;-58
2020/12/17 08:09:34;;;;;;;1.73;1.63;;;17.20;58.50;;;;;;5063549;28;20179;-59
2020/12/17 08:11:59;;;;;;;1.60;1.50;;;17.20;58.40;;;;;;5063568;28;20543;-61
2020/12/17 08:14:25;;;;;;;2.25;1.80;;;17.20;58.40;;;;;;5029157;28;20593;-61
2020/12/17 08:16:51;;;;;;;1.75;1.65;;;17.30;58.50;;;;;;5063450;28;20174;-59
2020/12/17 08:19:17;;;;;;;1.70;1.60;;;17.20;58.40;;;;;;5063073;28;21024;-62
2020/12/17 08:21:42;;;;;;;1.83;1.70;;;17.30;58.50;;;;;;5063739;28;20236;-61
2020/12/17 08:24:11;;;;;;;2.03;1.92;;;17.30;58.50;;;;;;5045202;28;20202;-59
2020/12/17 08:26:37;;;;;;;2.08;1.88;;;17.20;58.50;;;;;;5063251;28;20230;-66
2020/12/17 08:29:02;;;;;;;1.90;1.80;;;17.20;58.60;;;;;;5065072;28;20600;-65
2020/12/17 08:31:28;;;;;;;2.13;1.92;;;17.20;58.70;;;;;;5066885;28;20197;-64
2020/12/17 08:33:56;;;;;;;1.60;1.50;;;17.20;58.60;;;;;;5067071;28;20620;-64
2020/12/17 08:36:32;;;;;;;1.50;1.40;;;17.20;58.50;;;;;;5049010;28;20216;-64
2020/12/17 08:38:58;;;;;;;1.65;1.55;;;17.30;58.60;;;;;;5066730;28;20451;-64
2020/12/17 08:41:31;;;;;;;1.73;1.63;;;17.30;58.60;;;;;;5066842;28;21022;-64
2020/12/17 08:44:00;;;;;;;1.67;1.40;;;17.30;58.60;;;;;;5048761;28;20179;-63
2020/12/17 08:46:26;;;;;;;1.60;1.50;;;17.20;58.50;;;;;;5049354;28;20178;-64
2020/12/17 08:48:52;;;;;;;1.63;1.52;;;17.30;58.50;;;;;;5066905;28;20172;-63
2020/12/17 08:51:17;;;;;;;1.98;1.88;;;17.20;58.50;;;;;;5048977;28;20181;-65
2020/12/17 08:53:44;;;;;;;1.83;1.73;;;17.30;58.50;;;;;;5048691;28;20267;-64
2020/12/17 08:56:17;;;;;;;1.88;1.67;;;17.30;58.60;;;;;;5066621;28;20170;-64
2020/12/17 08:58:44;;;;;;;1.80;1.70;;;17.20;58.50;;;;;;5066534;28;20167;-63
2020/12/17 09:01:21;;;;;;;1.50;1.40;;;17.20;58.50;;;;;;5066657;28;20174;-63
2020/12/17 09:03:46;;;;;;;1.83;1.73;;;17.30;58.50;;;;;;5066483;28;20183;-63
2020/12/17 09:06:12;;;;;;;1.50;1.40;;;17.20;58.50;;;;;;5066405;28;20896;-63
2020/12/17 09:08:38;;;;;;;1.30;1.20;;;17.30;58.50;;;;;;5048490;28;20175;-63
2020/12/17 09:11:03;;;;;;;1.60;1.50;;;17.20;58.40;;;;;;5066195;28;20178;-63
2020/12/17 09:13:29;;;;;;;1.55;1.45;;;17.30;58.50;;;;;;5065898;28;20182;-63
2020/12/17 09:16:01;;;;;;;1.65;1.55;;;17.20;58.40;;;;;;5066368;28;20182;-64
2020/12/17 09:18:28;;;;;;;1.48;1.38;;;17.20;58.40;;;;;;5048406;28;20244;-64
2020/12/17 09:21:14;;;;;;;1.75;1.65;;;17.20;58.50;;;;;;5048198;28;20292;-65
2020/12/17 09:23:39;;;;;;;1.58;1.45;;;17.20;58.50;;;;;;5065057;28;20195;-63
2020/12/17 09:26:14;;;;;;;2.33;1.75;;;17.20;58.50;;;;;;5065962;28;20204;-65
2020/12/17 09:28:53;;;;;;;1.70;1.60;;;17.30;58.50;;;;;;5065915;28;20327;-64
2020/12/17 09:31:25;;;;;;;1.60;1.50;;;17.30;58.50;;;;;;5066305;28;20170;-64
2020/12/17 09:34:10;;;;;;;2.03;1.50;;;17.30;58.40;;;;;;5065917;28;20209;-63
2020/12/17 09:36:37;;;;;;;1.45;1.35;;;17.30;58.50;;;;;;5066056;28;20309;-63
2020/12/17 09:39:08;;;;;;;3.70;1.38;;;17.30;58.50;;;;;;5065745;28;20204;-64
2020/12/17 09:41:34;;;;;;;1.65;1.55;;;17.30;58.40;;;;;;5065727;28;20265;-65
2020/12/17 09:44:00;;;;;;;1.38;1.27;;;17.30;58.60;;;;;;5066063;28;20266;-65
2020/12/17 09:46:25;;;;;;;3.53;1.80;;;17.30;58.40;;;;;;5065487;28;20178;-65
2020/12/17 09:48:51;;;;;;;2.15;1.40;;;17.30;58.50;;;;;;5065502;28;20271;-66
2020/12/17 09:51:19;;;;;;;2.53;1.60;;;17.30;58.90;;;;;;5065792;28;20194;-66
2020/12/17 09:53:45;;;;;;;1.67;1.58;;;17.40;58.80;;;;;;5065734;28;20182;-65
2020/12/17 09:56:17;;;;;;;1.50;1.40;;;17.40;58.70;;;;;;5065372;28;20207;-65
2020/12/17 09:58:43;;;;;;;2.25;1.40;;;17.50;58.70;;;;;;5065389;28;20174;-67
2020/12/17 10:01:09;;;;;;;1.58;1.48;;;17.50;58.70;;;;;;5065117;28;20166;-68
2020/12/17 10:03:34;;;;;;;2.55;1.67;;;17.50;58.70;;;;;;5065721;28;20182;-68
2020/12/17 10:06:00;;;;;;;3.33;1.77;;;17.60;58.80;;;;;;5065054;28;20166;-67
2020/12/17 10:08:25;;;;;;;1.60;1.48;;;17.50;58.70;;;;;;5065167;28;20671;-66
2020/12/17 10:10:51;;;;;;;3.22;1.50;;;17.60;58.90;;;;;;5065172;28;20189;-66
2020/12/17 10:13:17;;;;;;;2.15;1.40;;;17.60;58.90;;;;;;5047287;28;20640;-67
2020/12/17 10:15:42;;;;;;;3.17;1.70;;;17.60;58.90;;;;;;5065183;28;20179;-68
2020/12/17 10:18:08;;;;;;;2.97;1.42;;;17.60;59.00;;;;;;5065140;28;20642;-68
2020/12/17 10:20:33;;;;;;;1.83;1.50;;;17.60;59.20;;;;;;5061064;28;20206;-65
2020/12/17 10:22:59;;;;;;;3.38;1.90;;;17.70;59.40;;;;;;5064941;28;20185;-67
2020/12/17 10:25:25;;;;;;;2.38;1.65;;;17.70;59.10;;;;;;5064918;28;20944;-64
2020/12/17 10:27:52;;;;;;;1.70;1.60;;;17.70;59.20;;;;;;5064700;28;20988;-65
2020/12/17 10:30:17;;;;;;;2.42;1.95;;;17.70;59.20;;;;;;5064804;28;20193;-63
2020/12/17 10:32:43;;;;;;;1.95;1.50;;;17.60;59.10;;;;;;5064521;28;20956;-63
2020/12/17 10:35:08;;;;;;;1.38;1.27;;;17.70;59.10;;;;;;5064550;28;20406;-64
2020/12/17 10:37:34;;;;;;;3.22;1.63;;;17.60;59.00;;;;;;5064501;28;20239;-65
2020/12/17 10:40:01;;;;;;;3.47;1.98;;;17.60;59.00;;;;;;5030309;28;20321;-64
2020/12/17 10:42:26;;;;;;;2.75;1.50;;;17.60;59.60;;;;;;5064351;28;21023;-65
2020/12/17 10:44:52;;;;;;;2.63;1.70;;;17.60;59.20;;;;;;5064645;28;20281;-65
2020/12/17 10:47:18;;;;;;;3.20;2.10;;;17.50;59.40;;;;;;5054887;28;20941;-64
2020/12/17 10:49:44;;;;;;;6.25;1.75;;;17.60;59.60;;;;;;5019899;28;20178;-63
2020/12/17 10:52:09;;;;;;;2.30;1.80;;;17.60;59.50;;;;;;5052011;28;20535;-64
2020/12/17 10:54:35;;;;;;;3.00;1.90;;;17.60;59.40;;;;;;5052510;28;20221;-64
2020/12/17 10:57:01;;;;;;;2.47;1.52;;;17.60;59.40;;;;;;5053583;28;20666;-64
2020/12/17 10:59:26;;;;;;;3.33;1.60;;;17.50;59.20;;;;;;5051984;28;20978;-64
2020/12/17 11:01:58;;;;;;;2.05;1.42;;;17.60;59.20;;;;;;5052538;28;20171;-63
2020/12/17 11:04:24;;;;;;;1.65;1.40;;;17.60;59.00;;;;;;5053688;28;20355;-64
2020/12/17 11:06:50;;;;;;;2.83;1.80;;;17.60;59.00;;;;;;5034634;28;20175;-64
2020/12/17 11:09:16;;;;;;;1.88;1.50;;;17.60;59.00;;;;;;5060981;28;20194;-64
2020/12/17 11:11:42;;;;;;;1.48;1.30;;;17.60;59.10;;;;;;5064133;28;20174;-68
2020/12/17 11:14:07;;;;;;;3.67;1.52;;;17.60;59.20;;;;;;5064205;28;20189;-65
2020/12/17 11:16:33;;;;;;;3.22;1.90;;;17.60;59.60;;;;;;5064082;28;20178;-63
2020/12/17 11:19:01;;;;;;;2.45;1.65;;;17.60;59.50;;;;;;5063974;28;20300;-66
2020/12/17 11:21:27;;;;;;;2.83;1.50;;;17.70;59.60;;;;;;5064096;28;20596;-68
2020/12/17 11:23:52;;;;;;;3.40;1.80;;;17.70;59.60;;;;;;5064005;28;20632;-65
2020/12/17 11:26:18;;;;;;;2.47;1.55;;;17.70;59.70;;;;;;5063658;28;20592;-65
2020/12/17 11:28:43;;;;;;;2.85;1.75;;;17.70;59.80;;;;;;5063818;28;20204;-64
2020/12/17 11:31:09;;;;;;;4.03;1.80;;;17.70;59.90;;;;;;5063925;28;20268;-66
2020/12/17 11:33:35;;;;;;;1.55;1.45;;;17.70;59.90;;;;;;5037241;28;20185;-65
2020/12/17 11:36:00;;;;;;;2.13;1.70;;;17.60;59.60;;;;;;5048270;28;20186;-64
2020/12/17 11:38:26;;;;;;;4.00;2.08;;;17.60;59.60;;;;;;5061243;28;20628;-63
2020/12/17 11:40:52;;;;;;;1.55;1.40;;;17.60;59.60;;;;;;5060906;28;20209;-67
2020/12/17 11:43:18;;;;;;;2.78;1.48;;;17.60;59.60;;;;;;5043619;28;20537;-65
2020/12/17 11:45:43;;;;;;;2.58;1.50;;;17.60;59.60;;;;;;5043894;28;20203;-65
2020/12/17 11:48:09;;;;;;;3.20;1.80;;;17.60;59.60;;;;;;5043549;28;20533;-63
2020/12/17 11:50:35;;;;;;;2.53;1.85;;;17.50;59.60;;;;;;5055536;28;20178;-66
2020/12/17 11:53:00;;;;;;;2.85;1.45;;;17.50;59.70;;;;;;5062441;28;20171;-65
2020/12/17 11:55:26;;;;;;;6.28;1.73;;;17.50;60.20;;;;;;5055620;28;20219;-66
2020/12/17 11:57:51;;;;;;;2.25;1.70;;;17.50;60.10;;;;;;5063431;28;20174;-64
2020/12/17 12:00:17;;;;;;;2.95;1.50;;;17.50;59.80;;;;;;5063529;28;20202;-63
2020/12/17 12:02:43;;;;;;;3.90;1.60;;;17.50;59.80;;;;;;5063415;28;20183;-64
2020/12/17 12:05:09;;;;;;;1.92;1.83;;;17.50;59.80;;;;;;5067391;28;20167;-65
2020/12/17 12:07:34;;;;;;;5.53;1.90;;;17.50;59.80;;;;;;5055434;28;20190;-64
2020/12/17 12:10:02;;;;;;;2.58;1.80;;;17.50;59.80;;;;;;5013539;28;20179;-64
2020/12/17 12:12:28;;;;;;;3.92;1.73;;;17.50;60.00;;;;;;5047439;28;20175;-61
2020/12/17 12:14:54;;;;;;;1.73;1.42;;;17.40;59.90;;;;;;5013061;28;20266;-63
2020/12/17 12:17:19;;;;;;;2.92;1.30;;;17.50;60.10;;;;;;5047588;28;20171;-62
2020/12/17 12:19:45;;;;;;;3.47;1.88;;;17.50;59.90;;;;;;5047293;28;20207;-64
2020/12/17 12:22:10;;;;;;;2.95;1.63;;;17.50;59.80;;;;;;5046946;28;20217;-64
2020/12/17 12:24:36;;;;;;;3.50;1.58;;;17.50;59.60;;;;;;5047070;28;20175;-65
2020/12/17 12:27:01;;;;;;;3.05;1.52;;;17.50;59.60;;;;;;5047232;28;20252;-64
2020/12/17 12:29:27;;;;;;;3.47;1.60;;;17.50;59.60;;;;;;5047040;28;20205;-63
2020/12/17 12:31:53;;;;;;;3.10;1.65;;;17.50;59.50;;;;;;5047147;28;20226;-62
2020/12/17 12:34:19;;;;;;;2.17;1.60;;;17.50;59.50;;;;;;5046759;28;20305;-62
2020/12/17 12:36:52;;;;;;;1.42;1.30;;;17.50;59.50;;;;;;5046886;28;20190;-62
2020/12/17 12:39:18;;;;;;;2.17;1.40;;;17.50;59.50;;;;;;5046654;28;20214;-62
2020/12/17 12:41:48;;;;;;;4.78;1.67;;;17.50;59.50;;;;;;5058528;28;20167;-63
2020/12/17 12:44:13;;;;;;;2.03;1.50;;;17.50;59.70;;;;;;5066502;28;20190;-62
2020/12/17 12:46:39;;;;;;;2.20;1.48;;;17.50;59.80;;;;;;5066301;28;20183;-61